createdAt,value
2022-10-05T00:02:35.839Z,5.43
2022-10-05T00:06:37.524Z,5.50
2022-10-05T00:10:40.895Z,5.80
2022-10-05T00:14:42.851Z,5.70
2022-10-05T00:18:47.051Z,5.63
2022-10-05T00:22:49.377Z,5.97
2022-10-05T00:26:57.058Z,5.87
2022-10-05T00:30:59.847Z,4.83
2022-10-05T00:35:01.316Z,4.97
2022-10-05T00:39:02.839Z,5.30
2022-10-05T00:43:19.107Z,5.20
2022-10-05T00:47:41.864Z,5.53
2022-10-05T00:51:45.104Z,5.90
2022-10-05T00:55:52.739Z,5.83
2022-10-05T01:00:00.427Z,5.37
2022-10-05T01:04:09.227Z,5.83
2022-10-05T01:08:17.671Z,6.33
2022-10-05T01:12:22.976Z,6.53
2022-10-05T01:16:27.632Z,6.70
2022-10-05T01:20:36.700Z,6.60
2022-10-05T01:24:42.547Z,6.57
2022-10-05T01:28:48.063Z,6.60
2022-10-05T01:32:51.876Z,6.27
2022-10-05T01:36:57.388Z,6.63
2022-10-05T01:41:03.857Z,7.00
2022-10-05T01:45:10.471Z,6.77
2022-10-05T01:49:17.212Z,5.93
2022-10-05T01:53:25.116Z,6.00
2022-10-05T01:57:31.252Z,6.40
2022-10-05T02:01:38.044Z,6.30
2022-10-05T02:05:44.267Z,5.83
2022-10-05T02:09:47.843Z,5.63
2022-10-05T02:13:51.257Z,5.77
2022-10-05T02:17:55.672Z,5.60
2022-10-05T02:22:01.950Z,5.70
2022-10-05T02:26:04.561Z,5.47
2022-10-05T02:30:09.599Z,6.00
2022-10-05T02:34:26.551Z,6.10
2022-10-05T02:38:33.127Z,6.17
2022-10-05T02:42:39.807Z,5.90
2022-10-05T02:46:44.483Z,6.00
2022-10-05T02:50:50.955Z,6.23
2022-10-05T02:54:54.340Z,6.57
2022-10-05T02:59:03.343Z,5.83
2022-10-05T03:03:08.140Z,6.33
2022-10-05T03:07:15.852Z,5.50
2022-10-05T03:11:23.595Z,6.30
2022-10-05T03:15:35.421Z,6.20
2022-10-05T03:19:42.991Z,6.30
2022-10-05T03:23:49.727Z,5.67
2022-10-05T03:27:54.134Z,6.40
2022-10-05T03:31:59.236Z,6.60
2022-10-05T03:36:05.409Z,6.13
2022-10-05T03:40:09.807Z,6.53
2022-10-05T03:44:16.521Z,6.97
2022-10-05T03:48:21.551Z,5.87
2022-10-05T03:52:25.883Z,6.13
2022-10-05T03:56:31.203Z,6.37
2022-10-05T04:00:34.158Z,5.87
2022-10-05T04:04:39.923Z,6.17
2022-10-05T04:08:47.645Z,6.60
2022-10-05T04:12:55.503Z,6.17
2022-10-05T04:16:58.157Z,5.67
2022-10-05T04:21:01.646Z,5.90
2022-10-05T04:25:06.350Z,5.83
2022-10-05T04:29:13.937Z,5.60
2022-10-05T04:33:15.343Z,6.10
2022-10-05T04:37:19.564Z,5.50
2022-10-05T04:41:32.918Z,5.53
2022-10-05T04:45:40.213Z,5.40
2022-10-05T04:49:49.177Z,5.27
2022-10-05T04:53:53.337Z,5.20
2022-10-05T04:57:58.877Z,5.67
2022-10-05T05:02:07.585Z,5.60
2022-10-05T05:06:18.719Z,5.47
2022-10-05T05:10:41.117Z,4.87
2022-10-05T05:14:52.826Z,4.67
2022-10-05T05:19:03.369Z,5.23
2022-10-05T05:23:09.489Z,5.50
2022-10-05T05:27:16.710Z,5.03
2022-10-05T05:31:24.977Z,5.77
2022-10-05T05:35:41.287Z,5.80
2022-10-05T05:39:48.322Z,5.73
2022-10-05T05:43:51.980Z,5.93
2022-10-05T05:47:54.080Z,6.70
2022-10-05T05:51:59.697Z,6.87
2022-10-05T05:56:04.883Z,6.43
2022-10-05T06:00:07.966Z,5.87
2022-10-05T06:04:11.128Z,6.40
2022-10-05T06:08:16.172Z,6.43
2022-10-05T06:12:19.602Z,6.10
2022-10-05T06:16:22.130Z,6.20
2022-10-05T06:20:25.030Z,6.20
2022-10-05T06:24:32.598Z,6.43
2022-10-05T06:28:33.900Z,5.70
2022-10-05T06:32:41.358Z,5.30
2022-10-05T06:36:45.626Z,5.60
2022-10-05T06:40:56.262Z,5.90
2022-10-05T06:45:01.177Z,4.97
2022-10-05T06:49:13.838Z,5.10
2022-10-05T06:53:32.886Z,4.97
2022-10-05T06:57:51.397Z,6.10
2022-10-05T07:01:58.078Z,4.67
2022-10-05T07:06:02.965Z,5.03
2022-10-05T07:10:12.594Z,4.77
2022-10-05T07:14:20.258Z,5.10
2022-10-05T07:18:29.310Z,4.80
2022-10-05T07:22:40.934Z,4.47
2022-10-05T07:26:45.541Z,4.47
2022-10-05T07:30:52.745Z,4.13
2022-10-05T07:34:56.767Z,4.40
2022-10-05T07:39:01.662Z,4.50
2022-10-05T07:43:07.296Z,4.03
2022-10-05T07:47:11.459Z,4.73
2022-10-05T07:51:18.661Z,4.43
2022-10-05T07:55:22.300Z,3.87
2022-10-05T07:59:27.300Z,4.10
2022-10-05T08:03:36.071Z,4.60
2022-10-05T08:07:38.049Z,4.30
2022-10-05T08:11:44.888Z,4.60
2022-10-05T08:15:48.858Z,4.47
2022-10-05T08:19:55.697Z,4.10
2022-10-05T08:23:59.745Z,4.60
2022-10-05T08:28:04.544Z,4.70
2022-10-05T08:32:10.130Z,5.70
2022-10-05T08:36:14.298Z,5.40
2022-10-05T08:40:30.460Z,4.97
2022-10-05T08:44:55.528Z,6.73
2022-10-05T08:49:02.047Z,4.40
2022-10-05T08:53:26.370Z,4.43
2022-10-05T08:57:54.414Z,3.87
2022-10-05T09:02:09.490Z,3.87
2022-10-05T09:06:19.267Z,3.37
2022-10-05T09:10:35.513Z,3.40
2022-10-05T09:14:52.420Z,3.17
2022-10-05T09:19:20.460Z,3.80
2022-10-05T09:23:33.354Z,4.80
2022-10-05T09:27:36.215Z,5.77
2022-10-05T09:31:50.402Z,5.87
2022-10-05T09:36:09.105Z,3.90
2022-10-05T09:40:31.222Z,3.17
2022-10-05T09:44:55.887Z,2.63
2022-10-05T09:49:18.401Z,2.47
2022-10-05T09:53:34.529Z,2.70
2022-10-05T09:57:56.797Z,3.40
2022-10-05T10:02:10.760Z,3.63
2022-10-05T10:06:20.536Z,2.83
2022-10-05T10:10:31.996Z,2.20
2022-10-05T10:14:47.385Z,1.83
2022-10-05T10:18:57.423Z,1.80
2022-10-05T10:23:06.803Z,1.53
2022-10-05T10:27:15.081Z,1.60
2022-10-05T10:31:24.120Z,1.30
2022-10-05T10:35:31.846Z,1.40
2022-10-05T10:39:42.096Z,1.77
2022-10-05T10:43:52.481Z,1.70
2022-10-05T10:48:00.674Z,1.60
2022-10-05T10:52:10.843Z,1.27
2022-10-05T10:56:28.639Z,1.17
2022-10-05T11:00:40.754Z,1.20
2022-10-05T11:05:03.451Z,1.23
2022-10-05T11:09:14.423Z,1.40
2022-10-05T11:13:31.124Z,1.30
2022-10-05T11:17:53.199Z,1.50
2022-10-05T11:22:03.044Z,1.30
2022-10-05T11:26:12.973Z,1.67
2022-10-05T11:30:25.378Z,1.43
2022-10-05T11:34:33.603Z,1.17
2022-10-05T11:38:41.388Z,1.30
2022-10-05T11:42:53.239Z,1.20
2022-10-05T11:47:00.321Z,1.00
2022-10-05T11:51:16.459Z,1.30
2022-10-05T11:55:23.399Z,1.43
2022-10-05T11:59:29.113Z,1.13
2022-10-05T12:03:36.781Z,1.20
2022-10-05T12:07:43.572Z,1.20
2022-10-05T12:11:49.213Z,1.20
2022-10-05T12:15:52.638Z,1.30
2022-10-05T12:19:57.967Z,1.20
2022-10-05T12:24:01.823Z,1.20
2022-10-05T12:28:04.627Z,1.20
2022-10-05T12:32:10.505Z,1.23
2022-10-05T12:36:14.207Z,1.20
2022-10-05T12:40:25.654Z,1.20
2022-10-05T12:44:37.265Z,1.30
2022-10-05T12:48:53.576Z,1.20
2022-10-05T12:53:05.513Z,1.00
2022-10-05T12:57:10.777Z,1.10
2022-10-05T13:01:18.594Z,1.13
2022-10-05T13:05:26.146Z,1.20
2022-10-05T13:09:32.631Z,1.20
2022-10-05T13:13:40.541Z,1.20
2022-10-05T13:17:47.378Z,1.23
2022-10-05T13:21:57.833Z,1.40
2022-10-05T13:26:02.991Z,1.10
2022-10-05T13:30:13.082Z,1.20
2022-10-05T13:34:19.720Z,1.27
2022-10-05T13:38:25.829Z,1.43
2022-10-05T13:42:32.640Z,1.10
2022-10-05T13:46:37.222Z,1.10
2022-10-05T13:50:42.288Z,1.30
2022-10-05T13:54:47.501Z,1.20
2022-10-05T13:58:54.295Z,1.20
2022-10-05T14:02:56.765Z,1.20
2022-10-05T14:07:13.394Z,1.20
2022-10-05T14:11:24.718Z,1.20
2022-10-05T14:15:30.843Z,1.17
2022-10-05T14:19:33.318Z,1.10
2022-10-05T14:23:34.883Z,1.30
2022-10-05T14:27:48.403Z,1.10
2022-10-05T14:31:54.001Z,1.10
2022-10-05T14:35:56.349Z,1.40
2022-10-05T14:40:03.391Z,1.10
2022-10-05T14:44:19.038Z,1.53
2022-10-05T14:48:21.909Z,1.30
2022-10-05T14:52:29.809Z,1.33
2022-10-05T14:56:40.495Z,1.60
2022-10-05T15:00:49.407Z,1.23
2022-10-05T15:04:55.604Z,1.10
2022-10-05T15:09:16.497Z,1.07
2022-10-05T15:13:21.684Z,1.30
2022-10-05T15:17:25.494Z,1.30
2022-10-05T15:21:35.188Z,1.27
2022-10-05T15:25:41.002Z,1.23
2022-10-05T15:29:51.354Z,1.20
2022-10-05T15:33:56.418Z,1.30
2022-10-05T15:38:03.486Z,1.43
2022-10-05T15:42:06.435Z,1.30
2022-10-05T15:46:10.353Z,1.30
2022-10-05T15:50:15.059Z,1.10
2022-10-05T15:54:21.795Z,1.30
2022-10-05T15:58:31.136Z,1.50
2022-10-05T16:02:36.073Z,1.30
2022-10-05T16:06:42.268Z,2.10
2022-10-05T16:10:45.698Z,1.60
2022-10-05T16:14:51.455Z,1.60
2022-10-05T16:18:58.962Z,1.53
2022-10-05T16:23:02.692Z,1.37
2022-10-05T16:27:10.248Z,1.40
2022-10-05T16:31:15.139Z,1.47
2022-10-05T16:35:21.624Z,1.40
2022-10-05T16:39:26.910Z,1.40
2022-10-05T16:43:34.160Z,1.30
2022-10-05T16:47:42.046Z,1.63
2022-10-05T16:51:46.219Z,1.40
2022-10-05T16:55:51.569Z,1.37
2022-10-05T17:00:15.649Z,1.50
2022-10-05T17:04:25.886Z,1.40
2022-10-05T17:08:40.961Z,1.27
2022-10-05T17:12:46.627Z,1.43
2022-10-05T17:16:54.752Z,1.30
2022-10-05T17:21:01.288Z,1.20
2022-10-05T17:25:06.385Z,1.40
2022-10-05T17:29:14.125Z,1.70
2022-10-05T17:33:19.889Z,1.70
2022-10-05T17:37:33.570Z,2.00
2022-10-05T17:41:34.874Z,2.23
2022-10-05T17:45:54.271Z,1.90
2022-10-05T17:49:57.201Z,1.90
2022-10-05T17:54:17.219Z,1.80
2022-10-05T17:58:36.183Z,2.00
2022-10-05T18:02:39.375Z,1.80
2022-10-05T18:06:42.667Z,1.80
2022-10-05T18:10:58.815Z,1.97
2022-10-05T18:15:02.510Z,1.50
2022-10-05T18:19:13.192Z,2.10
2022-10-05T18:23:27.672Z,1.70
2022-10-05T18:27:38.375Z,1.80
2022-10-05T18:31:46.444Z,1.90
2022-10-05T18:35:52.805Z,1.83
2022-10-05T18:40:01.485Z,1.77
2022-10-05T18:44:07.875Z,1.80
2022-10-05T18:48:16.967Z,1.70
2022-10-05T18:52:24.176Z,1.70
2022-10-05T18:56:27.977Z,1.87
2022-10-05T19:00:42.750Z,1.80
2022-10-05T19:04:52.823Z,2.17
2022-10-05T19:08:58.247Z,1.80
2022-10-05T19:13:10.374Z,1.80
2022-10-05T19:17:18.424Z,1.90
2022-10-05T19:21:25.178Z,1.67
2022-10-05T19:25:31.773Z,1.73
2022-10-05T19:29:43.543Z,1.70
2022-10-05T19:33:54.204Z,1.70
2022-10-05T19:38:02.255Z,1.60
2022-10-05T19:42:13.189Z,1.50
2022-10-05T19:46:34.452Z,1.60
2022-10-05T19:50:36.116Z,1.80
2022-10-05T19:54:38.681Z,1.30
2022-10-05T19:58:40.043Z,1.60
2022-10-05T20:02:42.248Z,1.60
2022-10-05T20:06:43.536Z,1.80
2022-10-05T20:11:03.175Z,1.27
2022-10-05T20:15:06.839Z,1.30
2022-10-05T20:19:23.148Z,1.43
2022-10-05T20:23:25.055Z,1.47
2022-10-05T20:27:35.650Z,1.50
2022-10-05T20:31:37.049Z,1.30
2022-10-05T20:35:38.329Z,1.47
2022-10-05T20:39:40.128Z,1.20
2022-10-05T20:43:42.756Z,1.30
2022-10-05T20:47:44.029Z,1.40
2022-10-05T20:51:45.652Z,1.40
2022-10-05T20:55:46.882Z,1.53
2022-10-05T20:59:49.610Z,1.20
2022-10-05T21:03:51.248Z,1.70
2022-10-05T21:07:52.623Z,1.50
2022-10-05T21:11:53.842Z,1.47
2022-10-05T21:15:56.682Z,1.70
2022-10-05T21:19:57.934Z,1.30
2022-10-05T21:23:59.305Z,1.40
2022-10-05T21:28:00.552Z,1.87
2022-10-05T21:32:03.414Z,1.57
2022-10-05T21:36:04.901Z,1.43
2022-10-05T21:40:06.796Z,1.70
2022-10-05T21:44:08.222Z,1.60
2022-10-05T21:48:11.049Z,1.40
2022-10-05T21:52:12.980Z,1.70
2022-10-05T21:56:15.517Z,1.80
2022-10-05T22:00:17.165Z,1.60
2022-10-05T22:04:20.609Z,1.90
2022-10-05T22:08:22.649Z,1.97
2022-10-05T22:12:24.021Z,2.10
2022-10-05T22:16:25.322Z,1.70
2022-10-05T22:20:27.925Z,1.40
2022-10-05T22:24:29.356Z,1.03
2022-10-05T22:28:31.899Z,1.00
2022-10-05T22:32:34.099Z,1.10
2022-10-05T22:36:36.828Z,0.97
2022-10-05T22:40:38.232Z,1.30
2022-10-05T22:44:39.486Z,1.10
2022-10-05T22:48:40.876Z,0.97
2022-10-05T22:52:43.462Z,1.00
2022-10-05T22:56:44.684Z,1.00
2022-10-05T23:00:58.146Z,1.00
2022-10-05T23:04:59.879Z,1.20
2022-10-05T23:09:02.765Z,1.10
2022-10-05T23:13:04.043Z,1.20
2022-10-05T23:17:05.326Z,1.10
2022-10-05T23:21:07.576Z,1.07
2022-10-05T23:25:10.396Z,1.03
2022-10-05T23:29:11.607Z,1.50
2022-10-05T23:33:12.977Z,1.13
2022-10-05T23:37:15.616Z,1.10
2022-10-05T23:41:18.969Z,1.00
2022-10-05T23:45:20.256Z,0.90
2022-10-05T23:49:21.492Z,1.10
2022-10-05T23:53:23.076Z,1.17
2022-10-05T23:57:25.860Z,1.30
